sensor_id;sensor_type;location;lat;lon;timestamp;temperature;humidity
47521;DHT22;32291;52.010;4.446;2023-06-22T00:00:58;17.90;99.90
47521;DHT22;32291;52.010;4.446;2023-06-22T00:02:00;17.90;99.90
47521;DHT22;32291;52.010;4.446;2023-06-22T00:03:02;17.90;99.90
47521;DHT22;32291;52.010;4.446;2023-06-22T00:04:04;17.90;99.90
47521;DHT22;32291;52.010;4.446;2023-06-22T00:05:05;17.80;99.90
47521;DHT22;32291;52.010;4.446;2023-06-22T00:06:08;17.90;99.90
47521;DHT22;32291;52.010;4.446;2023-06-22T00:07:10;17.80;99.90
47521;DHT22;32291;52.010;4.446;2023-06-22T00:08:11;17.80;99.90
47521;DHT22;32291;52.010;4.446;2023-06-22T00:09:13;17.80;99.90
47521;DHT22;32291;52.010;4.446;2023-06-22T00:10:15;17.70;99.90
47521;DHT22;32291;52.010;4.446;2023-06-22T00:11:16;17.80;99.90
47521;DHT22;32291;52.010;4.446;2023-06-22T00:12:17;17.80;99.90
47521;DHT22;32291;52.010;4.446;2023-06-22T00:13:19;17.70;99.90
47521;DHT22;32291;52.010;4.446;2023-06-22T00:14:21;17.70;99.90
47521;DHT22;32291;52.010;4.446;2023-06-22T00:15:23;17.70;99.90
47521;DHT22;32291;52.010;4.446;2023-06-22T00:16:24;17.70;99.90
47521;DHT22;32291;52.010;4.446;2023-06-22T00:17:26;17.70;99.90
47521;DHT22;32291;52.010;4.446;2023-06-22T00:18:27;17.70;99.90
47521;DHT22;32291;52.010;4.446;2023-06-22T00:19:31;17.70;99.90
47521;DHT22;32291;52.010;4.446;2023-06-22T00:20:33;17.60;99.90
47521;DHT22;32291;52.010;4.446;2023-06-22T00:21:37;17.60;99.90
47521;DHT22;32291;52.010;4.446;2023-06-22T00:22:39;17.60;99.90
47521;DHT22;32291;52.010;4.446;2023-06-22T00:23:41;17.60;99.90
47521;DHT22;32291;52.010;4.446;2023-06-22T00:24:42;17.60;99.90
47521;DHT22;32291;52.010;4.446;2023-06-22T00:25:44;17.60;99.90
47521;DHT22;32291;52.010;4.446;2023-06-22T00:26:48;17.60;99.90
47521;DHT22;32291;52.010;4.446;2023-06-22T00:27:50;17.60;99.90
47521;DHT22;32291;52.010;4.446;2023-06-22T00:28:51;17.60;99.90
47521;DHT22;32291;52.010;4.446;2023-06-22T00:29:53;17.60;99.90
47521;DHT22;32291;52.010;4.446;2023-06-22T00:30:54;17.50;99.90
47521;DHT22;32291;52.010;4.446;2023-06-22T00:31:56;17.50;99.90
47521;DHT22;32291;52.010;4.446;2023-06-22T00:32:58;17.60;99.90
47521;DHT22;32291;52.010;4.446;2023-06-22T00:34:00;17.50;99.90
47521;DHT22;32291;52.010;4.446;2023-06-22T00:35:04;17.50;99.90
47521;DHT22;32291;52.010;4.446;2023-06-22T00:36:07;17.50;99.90
47521;DHT22;32291;52.010;4.446;2023-06-22T00:37:08;17.50;99.90
47521;DHT22;32291;52.010;4.446;2023-06-22T00:38:12;17.50;99.90
47521;DHT22;32291;52.010;4.446;2023-06-22T00:39:13;17.50;99.90
47521;DHT22;32291;52.010;4.446;2023-06-22T00:40:15;17.50;99.90
47521;DHT22;32291;52.010;4.446;2023-06-22T00:41:18;17.50;99.90
47521;DHT22;32291;52.010;4.446;2023-06-22T00:42:19;17.50;99.90
47521;DHT22;32291;52.010;4.446;2023-06-22T00:43:21;17.60;99.90
47521;DHT22;32291;52.010;4.446;2023-06-22T00:44:22;17.60;99.90
47521;DHT22;32291;52.010;4.446;2023-06-22T00:45:24;17.60;99.90
47521;DHT22;32291;52.010;4.446;2023-06-22T00:46:27;17.60;99.90
47521;DHT22;32291;52.010;4.446;2023-06-22T00:47:28;17.60;99.90
47521;DHT22;32291;52.010;4.446;2023-06-22T00:48:30;17.50;99.90
47521;DHT22;32291;52.010;4.446;2023-06-22T00:49:32;17.50;99.90
47521;DHT22;32291;52.010;4.446;2023-06-22T00:50:34;17.50;99.90
47521;DHT22;32291;52.010;4.446;2023-06-22T00:51:39;17.50;99.90
47521;DHT22;32291;52.010;4.446;2023-06-22T00:52:56;17.50;99.90
47521;DHT22;32291;52.010;4.446;2023-06-22T00:53:59;17.50;99.90
47521;DHT22;32291;52.010;4.446;2023-06-22T00:55:02;17.50;99.90
47521;DHT22;32291;52.010;4.446;2023-06-22T00:56:04;17.50;99.90
47521;DHT22;32291;52.010;4.446;2023-06-22T00:57:07;17.50;99.90
47521;DHT22;32291;52.010;4.446;2023-06-22T00:58:13;17.50;99.90
47521;DHT22;32291;52.010;4.446;2023-06-22T00:59:14;17.50;99.90
47521;DHT22;32291;52.010;4.446;2023-06-22T01:00:18;17.50;99.90
47521;DHT22;32291;52.010;4.446;2023-06-22T01:01:21;17.50;99.90
47521;DHT22;32291;52.010;4.446;2023-06-22T01:02:24;17.40;99.90
47521;DHT22;32291;52.010;4.446;2023-06-22T01:03:26;17.50;99.90
47521;DHT22;32291;52.010;4.446;2023-06-22T01:04:35;17.50;99.90
47521;DHT22;32291;52.010;4.446;2023-06-22T01:05:39;17.40;99.90
47521;DHT22;32291;52.010;4.446;2023-06-22T01:08:41;17.40;99.90
47521;DHT22;32291;52.010;4.446;2023-06-22T01:09:55;17.40;99.90
47521;DHT22;32291;52.010;4.446;2023-06-22T01:11:20;17.40;99.90
47521;DHT22;32291;52.010;4.446;2023-06-22T01:12:31;17.40;99.90
47521;DHT22;32291;52.010;4.446;2023-06-22T01:14:00;17.40;99.90
47521;DHT22;32291;52.010;4.446;2023-06-22T01:15:15;17.40;99.90
47521;DHT22;32291;52.010;4.446;2023-06-22T01:16:34;17.30;99.90
47521;DHT22;32291;52.010;4.446;2023-06-22T01:17:40;17.30;99.90
47521;DHT22;32291;52.010;4.446;2023-06-22T01:18:44;17.30;99.90
47521;DHT22;32291;52.010;4.446;2023-06-22T01:19:51;17.30;99.90
47521;DHT22;32291;52.010;4.446;2023-06-22T01:20:58;17.30;99.90
47521;DHT22;32291;52.010;4.446;2023-06-22T01:22:02;17.30;99.90
47521;DHT22;32291;52.010;4.446;2023-06-22T01:23:37;17.30;99.90
47521;DHT22;32291;52.010;4.446;2023-06-22T01:26:18;17.30;99.90
47521;DHT22;32291;52.010;4.446;2023-06-22T01:27:33;17.30;99.90
47521;DHT22;32291;52.010;4.446;2023-06-22T01:28:53;17.30;99.90
47521;DHT22;32291;52.010;4.446;2023-06-22T01:29:57;17.30;99.90
47521;DHT22;32291;52.010;4.446;2023-06-22T01:31:01;17.30;99.90
47521;DHT22;32291;52.010;4.446;2023-06-22T01:32:10;17.30;99.90
47521;DHT22;32291;52.010;4.446;2023-06-22T01:33:13;17.20;99.90
47521;DHT22;32291;52.010;4.446;2023-06-22T01:34:17;17.30;99.90
47521;DHT22;32291;52.010;4.446;2023-06-22T01:35:20;17.20;99.90
47521;DHT22;32291;52.010;4.446;2023-06-22T01:36:23;17.20;99.90
47521;DHT22;32291;52.010;4.446;2023-06-22T01:37:28;17.20;99.90
47521;DHT22;32291;52.010;4.446;2023-06-22T01:38:31;17.20;99.90
47521;DHT22;32291;52.010;4.446;2023-06-22T01:39:34;17.20;99.90
47521;DHT22;32291;52.010;4.446;2023-06-22T01:40:39;17.20;99.90
47521;DHT22;32291;52.010;4.446;2023-06-22T01:41:42;17.20;99.90
47521;DHT22;32291;52.010;4.446;2023-06-22T01:42:44;17.10;99.90
47521;DHT22;32291;52.010;4.446;2023-06-22T01:43:48;17.10;99.90
47521;DHT22;32291;52.010;4.446;2023-06-22T01:44:52;17.20;99.90
47521;DHT22;32291;52.010;4.446;2023-06-22T01:45:56;17.10;99.90
47521;DHT22;32291;52.010;4.446;2023-06-22T01:46:59;17.10;99.90
47521;DHT22;32291;52.010;4.446;2023-06-22T01:48:01;17.20;99.90
47521;DHT22;32291;52.010;4.446;2023-06-22T01:49:04;17.10;99.90
47521;DHT22;32291;52.010;4.446;2023-06-22T01:50:07;17.20;99.90
47521;DHT22;32291;52.010;4.446;2023-06-22T01:51:09;17.10;99.90
47521;DHT22;32291;52.010;4.446;2023-06-22T01:52:11;17.10;99.90
47521;DHT22;32291;52.010;4.446;2023-06-22T01:53:12;17.10;99.90
47521;DHT22;32291;52.010;4.446;2023-06-22T01:54:14;17.20;99.90
47521;DHT22;32291;52.010;4.446;2023-06-22T01:55:15;17.10;99.90
47521;DHT22;32291;52.010;4.446;2023-06-22T01:56:17;17.10;99.90
47521;DHT22;32291;52.010;4.446;2023-06-22T01:57:20;17.10;99.90
47521;DHT22;32291;52.010;4.446;2023-06-22T01:58:23;17.20;99.90
47521;DHT22;32291;52.010;4.446;2023-06-22T01:59:29;17.10;99.90
47521;DHT22;32291;52.010;4.446;2023-06-22T02:00:44;17.10;99.90
47521;DHT22;32291;52.010;4.446;2023-06-22T02:01:59;17.20;99.90
47521;DHT22;32291;52.010;4.446;2023-06-22T02:03:14;17.10;99.90
47521;DHT22;32291;52.010;4.446;2023-06-22T02:04:27;17.10;99.90
47521;DHT22;32291;52.010;4.446;2023-06-22T02:05:39;17.10;99.90
47521;DHT22;32291;52.010;4.446;2023-06-22T02:06:52;17.10;99.90
47521;DHT22;32291;52.010;4.446;2023-06-22T02:08:07;17.10;99.90
47521;DHT22;32291;52.010;4.446;2023-06-22T02:09:14;17.10;99.90
47521;DHT22;32291;52.010;4.446;2023-06-22T02:10:20;17.00;99.90
47521;DHT22;32291;52.010;4.446;2023-06-22T02:11:24;17.10;99.90
47521;DHT22;32291;52.010;4.446;2023-06-22T02:12:29;17.00;99.90
47521;DHT22;32291;52.010;4.446;2023-06-22T02:13:33;17.00;99.90
47521;DHT22;32291;52.010;4.446;2023-06-22T02:14:35;16.90;99.90
47521;DHT22;32291;52.010;4.446;2023-06-22T02:15:42;17.00;99.90
47521;DHT22;32291;52.010;4.446;2023-06-22T02:16:44;17.00;99.90
47521;DHT22;32291;52.010;4.446;2023-06-22T02:17:47;17.00;99.90
47521;DHT22;32291;52.010;4.446;2023-06-22T02:18:50;17.00;99.90
47521;DHT22;32291;52.010;4.446;2023-06-22T02:19:52;17.00;99.90
47521;DHT22;32291;52.010;4.446;2023-06-22T02:20:54;17.00;99.90
47521;DHT22;32291;52.010;4.446;2023-06-22T02:21:55;16.90;99.90
47521;DHT22;32291;52.010;4.446;2023-06-22T02:22:57;17.00;99.90
47521;DHT22;32291;52.010;4.446;2023-06-22T02:23:58;16.90;99.90
47521;DHT22;32291;52.010;4.446;2023-06-22T02:25:00;16.90;99.90
47521;DHT22;32291;52.010;4.446;2023-06-22T02:26:03;16.90;99.90
47521;DHT22;32291;52.010;4.446;2023-06-22T02:27:05;16.90;99.90
47521;DHT22;32291;52.010;4.446;2023-06-22T02:28:08;16.90;99.90
47521;DHT22;32291;52.010;4.446;2023-06-22T02:29:10;16.90;99.90
47521;DHT22;32291;52.010;4.446;2023-06-22T02:30:12;16.90;99.90
47521;DHT22;32291;52.010;4.446;2023-06-22T02:31:16;16.90;99.90
47521;DHT22;32291;52.010;4.446;2023-06-22T02:32:17;16.90;99.90
47521;DHT22;32291;52.010;4.446;2023-06-22T02:33:19;16.90;99.90
47521;DHT22;32291;52.010;4.446;2023-06-22T02:34:22;16.90;99.90
47521;DHT22;32291;52.010;4.446;2023-06-22T02:35:24;16.90;99.90
47521;DHT22;32291;52.010;4.446;2023-06-22T02:36:27;16.80;99.90
47521;DHT22;32291;52.010;4.446;2023-06-22T02:37:31;16.90;99.90
47521;DHT22;32291;52.010;4.446;2023-06-22T02:38:33;16.90;99.90
47521;DHT22;32291;52.010;4.446;2023-06-22T02:39:35;16.90;99.90
47521;DHT22;32291;52.010;4.446;2023-06-22T02:40:38;16.80;99.90
47521;DHT22;32291;52.010;4.446;2023-06-22T02:41:39;16.80;99.90
47521;DHT22;32291;52.010;4.446;2023-06-22T02:42:41;16.80;99.90
47521;DHT22;32291;52.010;4.446;2023-06-22T02:43:42;16.80;99.90
47521;DHT22;32291;52.010;4.446;2023-06-22T02:44:44;16.80;99.90
47521;DHT22;32291;52.010;4.446;2023-06-22T02:45:45;16.80;99.90
47521;DHT22;32291;52.010;4.446;2023-06-22T02:46:49;16.80;99.90
47521;DHT22;32291;52.010;4.446;2023-06-22T02:47:52;16.80;99.90
47521;DHT22;32291;52.010;4.446;2023-06-22T02:48:53;16.80;99.90
47521;DHT22;32291;52.010;4.446;2023-06-22T02:49:55;16.80;99.90
47521;DHT22;32291;52.010;4.446;2023-06-22T02:50:56;16.80;99.90
47521;DHT22;32291;52.010;4.446;2023-06-22T02:51:58;16.90;99.90
47521;DHT22;32291;52.010;4.446;2023-06-22T02:52:59;16.80;99.90
47521;DHT22;32291;52.010;4.446;2023-06-22T02:54:01;16.80;99.90
47521;DHT22;32291;52.010;4.446;2023-06-22T02:55:02;16.80;99.90
47521;DHT22;32291;52.010;4.446;2023-06-22T02:56:04;16.80;99.90
47521;DHT22;32291;52.010;4.446;2023-06-22T02:57:09;16.80;99.90
47521;DHT22;32291;52.010;4.446;2023-06-22T02:58:14;16.80;99.90
47521;DHT22;32291;52.010;4.446;2023-06-22T02:59:16;16.80;99.90
47521;DHT22;32291;52.010;4.446;2023-06-22T03:00:17;16.70;99.90
47521;DHT22;32291;52.010;4.446;2023-06-22T03:01:20;16.80;99.90
47521;DHT22;32291;52.010;4.446;2023-06-22T03:02:25;16.80;99.90
47521;DHT22;32291;52.010;4.446;2023-06-22T03:03:27;16.80;99.90
47521;DHT22;32291;52.010;4.446;2023-06-22T03:04:28;16.80;99.90
47521;DHT22;32291;52.010;4.446;2023-06-22T03:05:32;16.80;99.90
47521;DHT22;32291;52.010;4.446;2023-06-22T03:06:33;16.80;99.90
47521;DHT22;32291;52.010;4.446;2023-06-22T03:07:35;16.80;99.90
47521;DHT22;32291;52.010;4.446;2023-06-22T03:08:38;16.80;99.90
47521;DHT22;32291;52.010;4.446;2023-06-22T03:09:39;16.80;99.90
47521;DHT22;32291;52.010;4.446;2023-06-22T03:10:42;16.80;99.90
47521;DHT22;32291;52.010;4.446;2023-06-22T03:11:46;16.70;99.90
47521;DHT22;32291;52.010;4.446;2023-06-22T03:12:47;16.80;99.90
47521;DHT22;32291;52.010;4.446;2023-06-22T03:13:49;16.70;99.90
47521;DHT22;32291;52.010;4.446;2023-06-22T03:14:50;16.70;99.90
47521;DHT22;32291;52.010;4.446;2023-06-22T03:15:52;16.70;99.90
47521;DHT22;32291;52.010;4.446;2023-06-22T03:16:53;16.70;99.90
47521;DHT22;32291;52.010;4.446;2023-06-22T03:17:55;16.70;99.90
47521;DHT22;32291;52.010;4.446;2023-06-22T03:18:56;16.60;99.90
47521;DHT22;32291;52.010;4.446;2023-06-22T03:19:58;16.60;99.90
47521;DHT22;32291;52.010;4.446;2023-06-22T03:20:59;16.60;99.90
47521;DHT22;32291;52.010;4.446;2023-06-22T03:22:03;16.60;99.90
47521;DHT22;32291;52.010;4.446;2023-06-22T03:23:05;16.60;99.90
47521;DHT22;32291;52.010;4.446;2023-06-22T03:24:07;16.60;99.90
47521;DHT22;32291;52.010;4.446;2023-06-22T03:25:09;16.60;99.90
47521;DHT22;32291;52.010;4.446;2023-06-22T03:26:12;16.50;99.90
47521;DHT22;32291;52.010;4.446;2023-06-22T03:27:14;16.50;99.90
47521;DHT22;32291;52.010;4.446;2023-06-22T03:28:16;16.50;99.90
47521;DHT22;32291;52.010;4.446;2023-06-22T03:29:18;16.50;99.90
47521;DHT22;32291;52.010;4.446;2023-06-22T03:30:21;16.60;99.90
47521;DHT22;32291;52.010;4.446;2023-06-22T03:31:23;16.60;99.90
47521;DHT22;32291;52.010;4.446;2023-06-22T03:32:24;16.60;99.90
47521;DHT22;32291;52.010;4.446;2023-06-22T03:33:29;16.60;99.90
47521;DHT22;32291;52.010;4.446;2023-06-22T03:34:30;16.70;99.90
47521;DHT22;32291;52.010;4.446;2023-06-22T03:35:35;16.60;99.90
47521;DHT22;32291;52.010;4.446;2023-06-22T03:36:38;16.70;99.90
47521;DHT22;32291;52.010;4.446;2023-06-22T03:37:39;16.70;99.90
47521;DHT22;32291;52.010;4.446;2023-06-22T03:38:41;16.60;99.90
47521;DHT22;32291;52.010;4.446;2023-06-22T03:39:46;16.60;99.90
47521;DHT22;32291;52.010;4.446;2023-06-22T03:40:47;16.70;99.90
47521;DHT22;32291;52.010;4.446;2023-06-22T03:41:49;16.70;99.90
47521;DHT22;32291;52.010;4.446;2023-06-22T03:42:50;16.70;99.90
47521;DHT22;32291;52.010;4.446;2023-06-22T03:43:52;16.70;99.90
47521;DHT22;32291;52.010;4.446;2023-06-22T03:44:53;16.60;99.90
47521;DHT22;32291;52.010;4.446;2023-06-22T03:45:54;16.70;99.90
47521;DHT22;32291;52.010;4.446;2023-06-22T03:46:56;16.70;99.90
47521;DHT22;32291;52.010;4.446;2023-06-22T03:47:58;16.70;99.90
47521;DHT22;32291;52.010;4.446;2023-06-22T03:48:59;16.70;99.90
47521;DHT22;32291;52.010;4.446;2023-06-22T03:50:01;16.60;99.90
47521;DHT22;32291;52.010;4.446;2023-06-22T03:51:04;16.60;99.90
47521;DHT22;32291;52.010;4.446;2023-06-22T03:52:06;16.60;99.90
47521;DHT22;32291;52.010;4.446;2023-06-22T03:53:08;16.60;99.90
47521;DHT22;32291;52.010;4.446;2023-06-22T03:54:09;16.60;99.90
47521;DHT22;32291;52.010;4.446;2023-06-22T03:55:11;16.50;99.90
47521;DHT22;32291;52.010;4.446;2023-06-22T03:56:12;16.50;99.90
47521;DHT22;32291;52.010;4.446;2023-06-22T03:57:14;16.50;99.90
47521;DHT22;32291;52.010;4.446;2023-06-22T03:58:16;16.50;99.90
47521;DHT22;32291;52.010;4.446;2023-06-22T03:59:20;16.50;99.90
47521;DHT22;32291;52.010;4.446;2023-06-22T04:00:21;16.50;99.90
47521;DHT22;32291;52.010;4.446;2023-06-22T04:01:22;16.50;99.90
47521;DHT22;32291;52.010;4.446;2023-06-22T04:02:24;16.50;99.90
47521;DHT22;32291;52.010;4.446;2023-06-22T04:03:26;16.60;99.90
47521;DHT22;32291;52.010;4.446;2023-06-22T04:04:28;16.50;99.90
47521;DHT22;32291;52.010;4.446;2023-06-22T04:05:29;16.50;99.90
47521;DHT22;32291;52.010;4.446;2023-06-22T04:06:31;16.50;99.90
47521;DHT22;32291;52.010;4.446;2023-06-22T04:07:35;16.50;99.90
47521;DHT22;32291;52.010;4.446;2023-06-22T04:08:38;16.50;99.90
47521;DHT22;32291;52.010;4.446;2023-06-22T04:09:39;16.50;99.90
47521;DHT22;32291;52.010;4.446;2023-06-22T04:10:41;16.60;99.90
47521;DHT22;32291;52.010;4.446;2023-06-22T04:11:42;16.60;99.90
47521;DHT22;32291;52.010;4.446;2023-06-22T04:12:44;16.60;99.90
47521;DHT22;32291;52.010;4.446;2023-06-22T04:13:46;16.60;99.90
47521;DHT22;32291;52.010;4.446;2023-06-22T04:14:47;16.70;99.90
47521;DHT22;32291;52.010;4.446;2023-06-22T04:15:49;16.70;99.90
47521;DHT22;32291;52.010;4.446;2023-06-22T04:16:51;16.70;99.90
47521;DHT22;32291;52.010;4.446;2023-06-22T04:17:54;16.70;99.90
47521;DHT22;32291;52.010;4.446;2023-06-22T04:18:56;16.80;99.90
47521;DHT22;32291;52.010;4.446;2023-06-22T04:20:00;16.80;99.90
47521;DHT22;32291;52.010;4.446;2023-06-22T04:21:04;16.80;99.90
47521;DHT22;32291;52.010;4.446;2023-06-22T04:22:06;16.80;99.90
47521;DHT22;32291;52.010;4.446;2023-06-22T04:23:08;16.90;99.90
47521;DHT22;32291;52.010;4.446;2023-06-22T04:24:10;16.90;99.90
47521;DHT22;32291;52.010;4.446;2023-06-22T04:25:12;16.90;99.90
47521;DHT22;32291;52.010;4.446;2023-06-22T04:26:14;16.90;99.90
47521;DHT22;32291;52.010;4.446;2023-06-22T04:27:15;16.90;99.90
47521;DHT22;32291;52.010;4.446;2023-06-22T04:28:17;16.90;99.90
47521;DHT22;32291;52.010;4.446;2023-06-22T04:29:18;17.00;99.90
47521;DHT22;32291;52.010;4.446;2023-06-22T04:30:20;17.00;99.90
47521;DHT22;32291;52.010;4.446;2023-06-22T04:31:22;17.00;99.90
47521;DHT22;32291;52.010;4.446;2023-06-22T04:32:34;17.00;99.90
47521;DHT22;32291;52.010;4.446;2023-06-22T04:33:43;17.00;99.90
47521;DHT22;32291;52.010;4.446;2023-06-22T04:34:44;17.00;99.90
47521;DHT22;32291;52.010;4.446;2023-06-22T04:35:46;17.10;99.90
47521;DHT22;32291;52.010;4.446;2023-06-22T04:36:48;17.10;99.90
47521;DHT22;32291;52.010;4.446;2023-06-22T04:37:52;17.10;99.90
47521;DHT22;32291;52.010;4.446;2023-06-22T04:38:55;17.10;99.90
47521;DHT22;32291;52.010;4.446;2023-06-22T04:39:58;17.10;99.90
47521;DHT22;32291;52.010;4.446;2023-06-22T04:41:00;17.20;99.90
47521;DHT22;32291;52.010;4.446;2023-06-22T04:42:12;17.20;99.90
47521;DHT22;32291;52.010;4.446;2023-06-22T04:43:15;17.20;99.90
47521;DHT22;32291;52.010;4.446;2023-06-22T04:44:20;17.30;99.90
47521;DHT22;32291;52.010;4.446;2023-06-22T04:45:28;17.30;99.90
47521;DHT22;32291;52.010;4.446;2023-06-22T04:46:30;17.30;99.90
47521;DHT22;32291;52.010;4.446;2023-06-22T04:47:32;17.40;99.90
47521;DHT22;32291;52.010;4.446;2023-06-22T04:48:33;17.40;99.90
47521;DHT22;32291;52.010;4.446;2023-06-22T04:49:36;17.40;99.90
47521;DHT22;32291;52.010;4.446;2023-06-22T04:50:38;17.50;99.90
47521;DHT22;32291;52.010;4.446;2023-06-22T04:51:41;17.50;99.90
47521;DHT22;32291;52.010;4.446;2023-06-22T04:52:43;17.50;99.90
47521;DHT22;32291;52.010;4.446;2023-06-22T04:53:44;17.60;99.90
47521;DHT22;32291;52.010;4.446;2023-06-22T04:54:48;17.60;99.90
47521;DHT22;32291;52.010;4.446;2023-06-22T04:55:51;17.60;99.90
47521;DHT22;32291;52.010;4.446;2023-06-22T04:56:54;17.60;99.90
47521;DHT22;32291;52.010;4.446;2023-06-22T04:57:58;17.70;99.90
47521;DHT22;32291;52.010;4.446;2023-06-22T04:59:05;17.70;99.90
47521;DHT22;32291;52.010;4.446;2023-06-22T05:00:08;17.70;99.90
47521;DHT22;32291;52.010;4.446;2023-06-22T05:01:18;17.70;99.90
47521;DHT22;32291;52.010;4.446;2023-06-22T05:02:20;17.80;99.90
47521;DHT22;32291;52.010;4.446;2023-06-22T05:03:24;17.80;99.90
47521;DHT22;32291;52.010;4.446;2023-06-22T05:04:27;17.80;99.90
47521;DHT22;32291;52.010;4.446;2023-06-22T05:05:32;17.80;99.90
47521;DHT22;32291;52.010;4.446;2023-06-22T05:06:33;17.90;99.90
47521;DHT22;32291;52.010;4.446;2023-06-22T05:07:36;17.90;99.90
47521;DHT22;32291;52.010;4.446;2023-06-22T05:08:38;17.90;99.90
47521;DHT22;32291;52.010;4.446;2023-06-22T05:09:39;17.90;99.90
47521;DHT22;32291;52.010;4.446;2023-06-22T05:10:41;18.00;99.90
47521;DHT22;32291;52.010;4.446;2023-06-22T05:11:42;18.00;99.90
47521;DHT22;32291;52.010;4.446;2023-06-22T05:12:47;18.10;99.90
47521;DHT22;32291;52.010;4.446;2023-06-22T05:13:49;18.10;99.90
47521;DHT22;32291;52.010;4.446;2023-06-22T05:14:50;18.10;99.90
47521;DHT22;32291;52.010;4.446;2023-06-22T05:15:52;18.10;99.90
47521;DHT22;32291;52.010;4.446;2023-06-22T05:16:53;18.10;99.90
47521;DHT22;32291;52.010;4.446;2023-06-22T05:17:55;18.20;99.90
47521;DHT22;32291;52.010;4.446;2023-06-22T05:18:56;18.20;99.90
47521;DHT22;32291;52.010;4.446;2023-06-22T05:19:58;18.20;99.90
47521;DHT22;32291;52.010;4.446;2023-06-22T05:21:03;18.30;99.90
47521;DHT22;32291;52.010;4.446;2023-06-22T05:22:04;18.30;99.90
47521;DHT22;32291;52.010;4.446;2023-06-22T05:23:07;18.40;99.90
47521;DHT22;32291;52.010;4.446;2023-06-22T05:24:09;18.40;99.90
47521;DHT22;32291;52.010;4.446;2023-06-22T05:25:11;18.40;99.90
47521;DHT22;32291;52.010;4.446;2023-06-22T05:26:13;18.50;99.90
47521;DHT22;32291;52.010;4.446;2023-06-22T05:27:15;18.50;99.90
47521;DHT22;32291;52.010;4.446;2023-06-22T05:28:17;18.50;99.90
47521;DHT22;32291;52.010;4.446;2023-06-22T05:29:23;18.50;99.90
47521;DHT22;32291;52.010;4.446;2023-06-22T05:30:25;18.50;99.90
47521;DHT22;32291;52.010;4.446;2023-06-22T05:31:28;18.60;99.90
47521;DHT22;32291;52.010;4.446;2023-06-22T05:32:30;18.60;99.90
47521;DHT22;32291;52.010;4.446;2023-06-22T05:33:32;18.60;99.90
47521;DHT22;32291;52.010;4.446;2023-06-22T05:34:34;18.60;99.90
47521;DHT22;32291;52.010;4.446;2023-06-22T05:35:35;18.60;99.90
47521;DHT22;32291;52.010;4.446;2023-06-22T05:36:40;18.70;99.90
47521;DHT22;32291;52.010;4.446;2023-06-22T05:37:41;18.70;99.90
47521;DHT22;32291;52.010;4.446;2023-06-22T05:38:43;18.70;99.90
47521;DHT22;32291;52.010;4.446;2023-06-22T05:39:45;18.70;99.90
47521;DHT22;32291;52.010;4.446;2023-06-22T05:40:46;18.70;99.90
47521;DHT22;32291;52.010;4.446;2023-06-22T05:41:48;18.80;99.90
47521;DHT22;32291;52.010;4.446;2023-06-22T05:42:49;18.70;99.90
47521;DHT22;32291;52.010;4.446;2023-06-22T05:43:50;18.80;99.90
47521;DHT22;32291;52.010;4.446;2023-06-22T05:44:53;18.80;99.90
47521;DHT22;32291;52.010;4.446;2023-06-22T05:45:54;18.90;99.90
47521;DHT22;32291;52.010;4.446;2023-06-22T05:46:56;18.90;99.90
47521;DHT22;32291;52.010;4.446;2023-06-22T05:47:57;18.90;99.90
47521;DHT22;32291;52.010;4.446;2023-06-22T05:48:59;18.90;99.90
47521;DHT22;32291;52.010;4.446;2023-06-22T05:50:00;18.90;99.90
47521;DHT22;32291;52.010;4.446;2023-06-22T05:51:10;18.90;99.90
47521;DHT22;32291;52.010;4.446;2023-06-22T05:52:12;19.00;99.90
47521;DHT22;32291;52.010;4.446;2023-06-22T05:53:13;18.90;99.90
47521;DHT22;32291;52.010;4.446;2023-06-22T05:54:15;19.00;99.90
47521;DHT22;32291;52.010;4.446;2023-06-22T05:55:19;19.00;99.90
47521;DHT22;32291;52.010;4.446;2023-06-22T05:56:20;19.00;99.90
47521;DHT22;32291;52.010;4.446;2023-06-22T05:57:22;19.00;99.90
47521;DHT22;32291;52.010;4.446;2023-06-22T05:58:23;19.00;99.90
47521;DHT22;32291;52.010;4.446;2023-06-22T05:59:25;19.00;99.90
47521;DHT22;32291;52.010;4.446;2023-06-22T06:00:26;19.10;99.90
47521;DHT22;32291;52.010;4.446;2023-06-22T06:01:28;19.10;99.90
47521;DHT22;32291;52.010;4.446;2023-06-22T06:02:29;19.10;99.90
47521;DHT22;32291;52.010;4.446;2023-06-22T06:03:40;19.20;99.90
47521;DHT22;32291;52.010;4.446;2023-06-22T06:04:41;19.20;99.90
47521;DHT22;32291;52.010;4.446;2023-06-22T06:05:43;19.30;99.90
47521;DHT22;32291;52.010;4.446;2023-06-22T06:06:46;19.30;99.90
47521;DHT22;32291;52.010;4.446;2023-06-22T06:07:48;19.30;99.90
47521;DHT22;32291;52.010;4.446;2023-06-22T06:08:49;19.40;99.90
47521;DHT22;32291;52.010;4.446;2023-06-22T06:09:52;19.40;99.90
47521;DHT22;32291;52.010;4.446;2023-06-22T06:10:53;19.50;99.90
47521;DHT22;32291;52.010;4.446;2023-06-22T06:11:56;19.50;99.90
47521;DHT22;32291;52.010;4.446;2023-06-22T06:12:58;19.50;99.90
47521;DHT22;32291;52.010;4.446;2023-06-22T06:13:59;19.60;99.90
47521;DHT22;32291;52.010;4.446;2023-06-22T06:15:01;19.60;99.90
47521;DHT22;32291;52.010;4.446;2023-06-22T06:16:04;19.60;99.90
47521;DHT22;32291;52.010;4.446;2023-06-22T06:17:06;19.70;99.90
47521;DHT22;32291;52.010;4.446;2023-06-22T06:18:11;19.70;99.90
47521;DHT22;32291;52.010;4.446;2023-06-22T06:19:12;19.80;99.90
47521;DHT22;32291;52.010;4.446;2023-06-22T06:20:14;19.80;99.90
47521;DHT22;32291;52.010;4.446;2023-06-22T06:21:17;19.90;99.90
47521;DHT22;32291;52.010;4.446;2023-06-22T06:22:18;19.90;99.90
47521;DHT22;32291;52.010;4.446;2023-06-22T06:23:21;19.90;99.90
47521;DHT22;32291;52.010;4.446;2023-06-22T06:24:23;20.00;99.90
47521;DHT22;32291;52.010;4.446;2023-06-22T06:25:26;20.00;99.90
47521;DHT22;32291;52.010;4.446;2023-06-22T06:26:27;20.00;99.90
47521;DHT22;32291;52.010;4.446;2023-06-22T06:27:30;20.10;99.90
47521;DHT22;32291;52.010;4.446;2023-06-22T06:28:32;20.10;99.90
47521;DHT22;32291;52.010;4.446;2023-06-22T06:29:34;20.10;99.90
47521;DHT22;32291;52.010;4.446;2023-06-22T06:30:41;20.20;99.90
47521;DHT22;32291;52.010;4.446;2023-06-22T06:31:43;20.20;99.90
47521;DHT22;32291;52.010;4.446;2023-06-22T06:32:45;20.20;99.90
47521;DHT22;32291;52.010;4.446;2023-06-22T06:33:48;20.30;99.90
47521;DHT22;32291;52.010;4.446;2023-06-22T06:34:49;20.30;99.90
47521;DHT22;32291;52.010;4.446;2023-06-22T06:35:51;20.30;99.90
47521;DHT22;32291;52.010;4.446;2023-06-22T06:36:52;20.40;99.90
47521;DHT22;32291;52.010;4.446;2023-06-22T06:37:54;20.40;99.90
47521;DHT22;32291;52.010;4.446;2023-06-22T06:38:55;20.50;99.90
47521;DHT22;32291;52.010;4.446;2023-06-22T06:39:58;20.50;99.90
47521;DHT22;32291;52.010;4.446;2023-06-22T06:40:59;20.50;99.90
47521;DHT22;32291;52.010;4.446;2023-06-22T06:42:00;20.60;99.90
47521;DHT22;32291;52.010;4.446;2023-06-22T06:43:12;20.60;99.90